Time;durP1;ratioP1;P1;durP2;ratioP2;P2;SDS_P1;SDS_P2;PMS_P1;PMS_P2;Temp;Humidity;BMP_temperature;BMP_pressure;BME280_temperature;BME280_humidity;BME280_pressure;Samples;Min_cycle;Max_cycle;Signal;HPM_P1;HPM_P2
2023/01/20 00:01:19;;;;;;;9.50;8.07;;;;;;;-2.35;100.00;98663.44;6246326;23;20205;-79
2023/01/20 00:03:46;;;;;;;9.83;8.37;;;;;;;-2.50;100.00;98665.84;6250646;22;20236;-80
2023/01/20 00:06:13;;;;;;;9.17;8.23;;;;;;;-2.48;100.00;98678.81;6253869;22;20212;-80
2023/01/20 00:08:40;;;;;;;10.27;7.87;;;;;;;-2.59;100.00;98682.56;6255461;23;20185;-80
2023/01/20 00:11:13;;;;;;;10.67;8.30;;;;;;;-2.62;100.00;98688.13;6255266;22;20228;-81
2023/01/20 00:13:40;;;;;;;9.13;8.23;;;;;;;-2.63;100.00;98694.34;6256049;22;20205;-80
2023/01/20 00:16:09;;;;;;;12.17;9.13;;;;;;;-2.67;100.00;98699.09;6255173;22;20231;-81
2023/01/20 00:18:37;;;;;;;10.80;8.97;;;;;;;-2.72;100.00;98693.50;6253749;23;20669;-80
2023/01/20 00:21:05;;;;;;;11.97;8.60;;;;;;;-2.73;100.00;98696.28;6253315;22;20721;-80
2023/01/20 00:23:35;;;;;;;12.83;10.53;;;;;;;-2.78;100.00;98695.91;6225948;23;20215;-79
2023/01/20 00:26:09;;;;;;;10.73;9.37;;;;;;;-2.77;100.00;98692.31;6253305;22;20208;-79
2023/01/20 00:28:36;;;;;;;9.87;8.87;;;;;;;-2.73;100.00;98701.50;6226661;23;20205;-80
2023/01/20 00:31:17;;;;;;;10.33;8.70;;;;;;;-2.74;100.00;98713.78;6252236;22;20212;-80
2023/01/20 00:33:45;;;;;;;9.43;8.27;;;;;;;-2.77;100.00;98719.38;6275991;22;20236;-80
2023/01/20 00:36:13;;;;;;;8.83;7.87;;;;;;;-2.79;100.00;98720.50;6250170;22;20284;-80
2023/01/20 00:38:39;;;;;;;10.33;7.57;;;;;;;-2.73;100.00;98732.97;6226166;23;20215;-80
2023/01/20 00:41:07;;;;;;;9.87;7.77;;;;;;;-2.74;100.00;98747.06;6252073;22;20211;-80
2023/01/20 00:43:34;;;;;;;10.87;8.53;;;;;;;-2.79;100.00;98751.94;6250343;23;20208;-80
2023/01/20 00:46:04;;;;;;;10.20;8.83;;;;;;;-2.89;100.00;98759.13;6249955;22;20553;-80
2023/01/20 00:48:31;;;;;;;9.07;7.70;;;;;;;-2.98;100.00;98747.75;6250032;22;20229;-80
2023/01/20 00:51:00;;;;;;;10.40;7.43;;;;;;;-2.95;100.00;98754.50;6250616;23;20185;-80
2023/01/20 00:53:27;;;;;;;9.40;7.60;;;;;;;-3.00;100.00;98754.97;6250290;23;20287;-80
2023/01/20 00:55:54;;;;;;;8.57;7.03;;;;;;;-3.02;100.00;98762.16;6256706;23;20260;-80
2023/01/20 00:58:23;;;;;;;8.33;7.10;;;;;;;-3.08;100.00;98769.81;6252874;22;20189;-80
2023/01/20 01:01:18;;;;;;;9.43;7.50;;;;;;;-3.26;100.00;98773.28;6279542;22;20211;-79
2023/01/20 01:03:45;;;;;;;9.93;7.70;;;;;;;-3.28;100.00;98777.88;6257742;22;20212;-80
2023/01/20 01:06:16;;;;;;;7.97;7.17;;;;;;;-3.22;100.00;98779.06;6231612;22;20227;-80
2023/01/20 01:08:43;;;;;;;10.03;7.43;;;;;;;-3.14;100.00;98779.09;6285158;22;20282;-79
2023/01/20 01:11:11;;;;;;;9.73;7.67;;;;;;;-3.20;100.00;98779.72;6259456;22;20275;-81
2023/01/20 01:13:40;;;;;;;8.60;7.30;;;;;;;-3.27;100.00;98771.66;6256570;22;20208;-80
2023/01/20 01:16:11;;;;;;;9.80;7.57;;;;;;;-3.30;100.00;98763.25;6282239;22;20208;-80
2023/01/20 01:18:39;;;;;;;10.27;7.63;;;;;;;-3.37;100.00;98765.69;6227124;23;20231;-80
2023/01/20 01:21:11;;;;;;;11.20;7.80;;;;;;;-3.37;100.00;98757.84;6258464;23;20215;-80
2023/01/20 01:23:38;;;;;;;9.93;7.23;;;;;;;-3.40;100.00;98758.13;6228488;22;20208;-81
2023/01/20 01:26:05;;;;;;;9.83;8.23;;;;;;;-3.32;100.00;98760.00;6263047;22;20208;-80
2023/01/20 01:28:34;;;;;;;9.30;7.20;;;;;;;-3.21;100.00;98754.47;6238599;22;20200;-81
2023/01/20 01:31:01;;;;;;;10.10;7.67;;;;;;;-3.09;100.00;98732.31;6237568;22;20212;-81
2023/01/20 01:33:31;;;;;;;9.67;7.47;;;;;;;-3.02;100.00;98725.44;6261711;22;20261;-81
2023/01/20 01:35:59;;;;;;;8.70;6.90;;;;;;;-3.09;100.00;98728.88;6235449;22;20512;-82
2023/01/20 01:38:27;;;;;;;9.07;7.00;;;;;;;-3.04;100.00;98737.09;6262124;22;20196;-81
2023/01/20 01:40:54;;;;;;;8.87;7.57;;;;;;;-3.13;100.00;98726.53;6263350;22;20210;-81
2023/01/20 01:43:22;;;;;;;8.97;7.10;;;;;;;-3.10;100.00;98720.19;6237974;22;20287;-81
2023/01/20 01:45:49;;;;;;;8.47;7.20;;;;;;;-3.25;100.00;98717.31;6264395;22;20204;-81
2023/01/20 01:48:33;;;;;;;9.00;7.23;;;;;;;-3.15;100.00;98710.16;6264537;22;20199;-81
2023/01/20 01:51:06;;;;;;;9.00;6.90;;;;;;;-3.14;100.00;98717.06;6291148;22;20204;-81
2023/01/20 01:53:39;;;;;;;7.80;6.97;;;;;;;-3.14;100.00;98711.81;6239401;22;20204;-81
2023/01/20 01:56:06;;;;;;;8.73;6.80;;;;;;;-3.05;100.00;98711.84;6224328;22;20215;-82
2023/01/20 01:58:35;;;;;;;8.83;6.90;;;;;;;-2.98;100.00;98723.34;6266882;22;20215;-81
2023/01/20 02:01:02;;;;;;;8.20;6.43;;;;;;;-2.96;100.00;98713.53;6240828;22;20212;-82
2023/01/20 02:03:38;;;;;;;9.67;6.97;;;;;;;-2.89;100.00;98720.59;6290321;22;20307;-80
2023/01/20 02:06:05;;;;;;;10.63;6.97;;;;;;;-3.02;100.00;98714.16;6238578;22;20660;-80
2023/01/20 02:08:32;;;;;;;10.67;7.93;;;;;;;-3.11;100.00;98710.66;6265244;22;20176;-81
2023/01/20 02:10:59;;;;;;;7.97;6.50;;;;;;;-3.15;100.00;98704.09;6265088;22;20676;-81
2023/01/20 02:13:26;;;;;;;9.43;7.17;;;;;;;-3.21;100.00;98694.22;6290542;22;20239;-80
2023/01/20 02:16:03;;;;;;;11.67;7.37;;;;;;;-3.20;100.00;98701.13;6291973;22;20729;-81
2023/01/20 02:18:53;;;;;;;9.33;7.00;;;;;;;-3.10;100.00;98699.22;6227804;22;20200;-82
2023/01/20 02:21:37;;;;;;;9.43;7.00;;;;;;;-3.07;100.00;98708.56;6291524;22;20215;-80
2023/01/20 02:24:25;;;;;;;11.47;7.00;;;;;;;-3.22;100.00;98703.88;6292272;22;20208;-80
2023/01/20 02:27:10;;;;;;;9.27;7.23;;;;;;;-3.15;100.00;98699.69;6262452;22;20587;-81
2023/01/20 02:30:19;;;;;;;8.73;6.90;;;;;;;-3.16;100.00;98708.50;6236434;22;20231;-81
2023/01/20 02:32:56;;;;;;;8.67;6.77;;;;;;;-3.15;100.00;98722.44;6247292;22;20212;-82
2023/01/20 02:35:45;;;;;;;8.13;6.77;;;;;;;-3.21;100.00;98728.28;6288283;22;20187;-81
2023/01/20 02:38:50;;;;;;;9.23;6.63;;;;;;;-3.28;100.00;98716.78;6259644;22;20208;-80
2023/01/20 02:41:36;;;;;;;8.57;7.03;;;;;;;-3.40;100.00;98708.34;6260741;22;20191;-81
2023/01/20 02:44:13;;;;;;;9.27;7.70;;;;;;;-3.39;100.00;98712.63;6260050;22;20282;-79
2023/01/20 02:47:09;;;;;;;11.17;8.00;;;;;;;-3.40;100.00;98720.63;6236353;22;20212;-80
2023/01/20 02:49:59;;;;;;;9.33;7.03;;;;;;;-3.42;100.00;98709.50;6251280;22;20212;-81
2023/01/20 02:52:30;;;;;;;9.23;7.30;;;;;;;-3.50;100.00;98715.50;6292367;22;20203;-81
2023/01/20 02:55:04;;;;;;;9.40;7.33;;;;;;;-3.42;100.00;98691.16;6292999;22;20203;-81
2023/01/20 02:57:36;;;;;;;8.60;7.37;;;;;;;-3.42;100.00;98701.63;6293645;22;20204;-81
2023/01/20 03:00:18;;;;;;;9.93;7.43;;;;;;;-3.53;100.00;98709.72;6269224;22;20245;-80
2023/01/20 03:02:49;;;;;;;8.27;6.90;;;;;;;-3.50;100.00;98709.44;6284712;22;20207;-80
2023/01/20 03:05:29;;;;;;;9.83;7.13;;;;;;;-3.52;100.00;98711.38;6284121;22;20207;-80
2023/01/20 03:07:58;;;;;;;9.93;7.17;;;;;;;-3.48;100.00;98705.69;6311735;22;20284;-80
2023/01/20 03:10:29;;;;;;;8.97;7.07;;;;;;;-3.60;100.00;98699.91;6284471;22;20223;-80
2023/01/20 03:12:59;;;;;;;10.33;7.53;;;;;;;-3.61;100.00;98687.78;6284304;22;20208;-80
2023/01/20 03:15:34;;;;;;;9.07;7.27;;;;;;;-3.57;100.00;98704.00;6284298;22;20720;-79
2023/01/20 03:18:01;;;;;;;10.07;6.67;;;;;;;-3.60;100.00;98705.13;6285871;22;20211;-79
2023/01/20 03:20:35;;;;;;;9.03;6.83;;;;;;;-3.68;100.00;98691.97;6237884;22;20200;-80
2023/01/20 03:23:02;;;;;;;11.17;7.33;;;;;;;-3.54;100.00;98695.81;6194296;23;20215;-80
2023/01/20 03:25:29;;;;;;;8.43;7.00;;;;;;;-3.45;100.00;98691.47;6222091;23;20208;-81
2023/01/20 03:28:03;;;;;;;8.37;6.83;;;;;;;-3.50;100.00;98684.09;6223634;23;20232;-79
2023/01/20 03:30:30;;;;;;;9.17;7.33;;;;;;;-3.58;100.00;98676.16;6168742;23;20204;-80
2023/01/20 03:33:00;;;;;;;8.97;7.40;;;;;;;-3.55;100.00;98673.25;6194037;23;20215;-80
2023/01/20 03:35:26;;;;;;;8.73;6.90;;;;;;;-3.57;100.00;98676.00;6198285;23;20232;-80
2023/01/20 03:37:53;;;;;;;9.17;7.33;;;;;;;-3.63;100.00;98667.94;6223319;23;20676;-81
2023/01/20 03:40:25;;;;;;;8.53;6.87;;;;;;;-3.63;100.00;98671.38;6192455;23;20193;-81
2023/01/20 03:45:58;;;;;;;7.83;6.40;;;;;;;-3.56;100.00;98687.31;6225616;23;20208;31
2023/01/20 03:48:37;;;;;;;8.93;6.83;;;;;;;-3.70;100.00;98691.31;6144614;23;20190;-80
2023/01/20 03:51:12;;;;;;;11.20;7.27;;;;;;;-3.68;100.00;98704.22;6167682;23;20214;-80
2023/01/20 03:54:00;;;;;;;8.63;6.27;;;;;;;-3.68;100.00;98712.91;6093648;23;20274;-81
2023/01/20 04:08:36;;;;;;;9.90;7.00;;;;;;;-3.80;100.00;98711.50;6152824;23;20206;-82
2023/01/20 04:11:06;;;;;;;8.47;6.63;;;;;;;-3.85;100.00;98707.69;6127769;23;20248;-82
2023/01/20 04:13:36;;;;;;;9.20;6.77;;;;;;;-3.83;100.00;98713.59;6129258;23;20207;-80
2023/01/20 04:16:11;;;;;;;7.67;6.47;;;;;;;-3.83;100.00;98711.00;6137898;23;20207;-79
2023/01/20 04:18:42;;;;;;;8.83;6.97;;;;;;;-3.80;100.00;98723.78;6114671;23;20210;-80
2023/01/20 04:21:14;;;;;;;9.10;7.20;;;;;;;-3.80;100.00;98729.81;6123341;23;20230;-81
2023/01/20 04:23:45;;;;;;;10.27;7.60;;;;;;;-3.73;100.00;98743.94;6135726;23;20219;-81
2023/01/20 04:26:12;;;;;;;9.23;6.80;;;;;;;-3.87;100.00;98751.53;6110671;23;20219;-82
2023/01/20 04:28:40;;;;;;;11.20;7.40;;;;;;;-3.91;100.00;98755.38;6125248;23;20207;-81
2023/01/20 04:31:07;;;;;;;10.13;7.33;;;;;;;-3.94;100.00;98750.47;6100727;23;20211;-81
2023/01/20 04:33:55;;;;;;;16.07;7.90;;;;;;;-4.01;100.00;98748.44;6148384;23;20201;-80
2023/01/20 04:36:22;;;;;;;11.97;7.67;;;;;;;-3.90;100.00;98743.94;6145746;23;20227;-81
2023/01/20 04:38:50;;;;;;;10.30;7.70;;;;;;;-4.00;100.00;98755.31;6100392;23;20203;-81
2023/01/20 04:41:18;;;;;;;8.40;6.73;;;;;;;-4.08;100.00;98757.03;6123723;23;20211;-81
2023/01/20 04:43:47;;;;;;;7.43;6.63;;;;;;;-3.94;100.00;98780.06;6105062;23;20222;-78
2023/01/20 04:46:14;;;;;;;8.43;6.63;;;;;;;-3.96;100.00;98783.78;6127768;23;20288;-81
2023/01/20 04:48:43;;;;;;;11.03;6.97;;;;;;;-3.97;100.00;98793.47;6127160;23;20211;-79
2023/01/20 04:51:10;;;;;;;9.13;6.77;;;;;;;-3.99;100.00;98790.16;6125829;23;20282;-79
2023/01/20 04:53:37;;;;;;;8.67;6.73;;;;;;;-3.86;100.00;98802.88;6126338;23;20207;-79
2023/01/20 04:56:04;;;;;;;9.53;6.67;;;;;;;-3.90;100.00;98799.72;6125800;23;20212;-79
2023/01/20 04:58:30;;;;;;;7.33;6.50;;;;;;;-3.97;100.00;98811.78;6124688;23;20207;-79
2023/01/20 05:01:00;;;;;;;7.60;6.50;;;;;;;-3.95;100.00;98812.44;6126106;23;20712;-79
2023/01/20 05:03:27;;;;;;;10.77;7.33;;;;;;;-4.07;100.00;98818.88;6114333;23;20208;-79
2023/01/20 05:05:54;;;;;;;10.13;7.23;;;;;;;-4.12;100.00;98819.31;6126086;23;20229;-78
2023/01/20 05:08:20;;;;;;;8.20;6.43;;;;;;;-4.10;100.00;98814.72;6184574;23;20209;-79
2023/01/20 05:10:47;;;;;;;9.30;6.93;;;;;;;-4.09;100.00;98813.75;6159038;23;20213;-78
2023/01/20 05:13:14;;;;;;;10.60;6.57;;;;;;;-3.98;100.00;98823.22;6185183;23;20210;-80
2023/01/20 05:15:42;;;;;;;8.53;6.93;;;;;;;-3.98;100.00;98817.97;6158791;23;20218;-79
2023/01/20 05:18:09;;;;;;;8.77;6.80;;;;;;;-3.98;100.00;98815.38;6159032;23;20218;-79
2023/01/20 05:20:38;;;;;;;10.33;7.03;;;;;;;-4.01;100.00;98823.47;6184850;23;20228;-80
2023/01/20 05:23:07;;;;;;;7.63;6.77;;;;;;;-3.95;100.00;98822.06;6159348;23;20201;-79
2023/01/20 05:25:34;;;;;;;8.20;7.20;;;;;;;-3.94;100.00;98823.72;6184785;23;20684;-79
2023/01/20 05:28:00;;;;;;;8.50;6.83;;;;;;;-3.85;100.00;98825.47;6183909;23;20293;-78
2023/01/20 05:30:27;;;;;;;9.83;7.17;;;;;;;-3.80;100.00;98823.22;6158635;23;20198;-79
2023/01/20 05:33:01;;;;;;;9.40;7.33;;;;;;;-3.71;100.00;98830.19;6184511;23;20217;-79
2023/01/20 05:35:30;;;;;;;9.00;6.93;;;;;;;-3.61;100.00;98829.16;6183134;23;20210;-80
2023/01/20 05:37:57;;;;;;;9.70;7.63;;;;;;;-3.48;100.00;98834.00;6184743;23;20210;-79
2023/01/20 05:40:23;;;;;;;8.93;7.00;;;;;;;-3.20;100.00;98827.69;6184006;23;20671;-79
2023/01/20 05:42:50;;;;;;;11.67;7.03;;;;;;;-2.97;100.00;98822.78;6184395;23;20658;-79
2023/01/20 05:45:16;;;;;;;10.23;6.07;;;;;;;-2.87;100.00;98820.91;6184637;23;20210;-80
2023/01/20 05:47:43;;;;;;;8.13;7.10;;;;;;;-2.77;100.00;98831.28;6184533;23;20281;-81
2023/01/20 05:50:10;;;;;;;14.37;8.37;;;;;;;-2.75;100.00;98830.13;6183852;23;20208;-79
2023/01/20 05:52:41;;;;;;;9.10;6.53;;;;;;;-2.58;100.00;98825.81;6150888;23;20549;-79
2023/01/20 05:55:10;;;;;;;10.80;6.97;;;;;;;-2.58;100.00;98825.00;6154613;23;20249;-79
2023/01/20 05:57:36;;;;;;;10.77;7.40;;;;;;;-2.54;100.00;98821.91;6154694;23;20708;-79
2023/01/20 06:00:04;;;;;;;10.33;7.00;;;;;;;-2.41;100.00;98824.09;6154289;23;20233;-79
2023/01/20 06:02:34;;;;;;;8.63;6.80;;;;;;;-2.40;100.00;98821.31;6154493;23;20206;-79
2023/01/20 06:05:02;;;;;;;9.17;7.00;;;;;;;-2.31;100.00;98823.00;6154628;23;20234;-79
2023/01/20 06:07:29;;;;;;;10.03;7.10;;;;;;;-2.34;100.00;98820.69;6173858;23;20284;-79
2023/01/20 06:09:56;;;;;;;9.93;7.23;;;;;;;-2.24;100.00;98804.84;6184552;23;20206;-79
2023/01/20 06:12:23;;;;;;;8.27;6.97;;;;;;;-2.16;100.00;98810.09;6157736;23;20198;-79
2023/01/20 06:14:50;;;;;;;8.60;6.80;;;;;;;-2.12;100.00;98806.19;6158358;23;20265;-79
2023/01/20 06:17:25;;;;;;;10.00;7.27;;;;;;;-2.14;100.00;98805.50;6160317;23;20539;-79
2023/01/20 06:19:59;;;;;;;8.37;6.63;;;;;;;-2.15;100.00;98810.94;6185894;23;20210;-79
2023/01/20 06:22:26;;;;;;;7.93;6.10;;;;;;;-2.21;100.00;98817.63;6186086;23;20236;-79
2023/01/20 06:24:53;;;;;;;8.97;6.77;;;;;;;-2.36;100.00;98817.41;6160491;23;20212;-79
2023/01/20 06:27:21;;;;;;;9.03;7.10;;;;;;;-2.41;100.00;98819.66;6186402;23;20205;-79
2023/01/20 06:29:49;;;;;;;8.63;6.93;;;;;;;-2.28;100.00;98822.66;6186424;23;20233;-79
2023/01/20 06:32:16;;;;;;;8.90;6.73;;;;;;;-2.28;100.00;98824.47;6185606;23;20223;-79
2023/01/20 06:34:43;;;;;;;9.37;7.37;;;;;;;-2.23;100.00;98819.56;6186114;23;20706;-79
2023/01/20 06:37:10;;;;;;;9.43;6.87;;;;;;;-2.20;100.00;98815.81;6186388;23;20614;-79
2023/01/20 06:39:40;;;;;;;9.53;7.07;;;;;;;-2.12;100.00;98814.03;6186283;23;20213;-78
2023/01/20 06:42:07;;;;;;;8.77;6.67;;;;;;;-2.07;100.00;98821.44;6186186;23;20249;-78
2023/01/20 06:44:33;;;;;;;10.30;6.87;;;;;;;-2.07;100.00;98814.41;6184964;23;20260;-79
2023/01/20 06:47:07;;;;;;;10.53;7.17;;;;;;;-1.95;100.00;98810.47;6186120;23;20206;-79
2023/01/20 06:49:34;;;;;;;10.60;6.60;;;;;;;-1.95;100.00;98812.28;6186333;23;20218;-79
2023/01/20 06:52:00;;;;;;;8.83;7.33;;;;;;;-1.93;100.00;98819.03;6185398;23;20210;-77
2023/01/20 06:54:27;;;;;;;9.50;6.80;;;;;;;-2.11;100.00;98817.50;6185936;23;20206;-78
2023/01/20 06:56:54;;;;;;;9.40;7.07;;;;;;;-2.10;100.00;98819.94;6185963;23;20538;-78
2023/01/20 06:59:20;;;;;;;10.47;7.23;;;;;;;-1.94;100.00;98822.63;6186182;23;20209;-79
2023/01/20 07:01:47;;;;;;;9.97;7.47;;;;;;;-1.87;100.00;98828.88;6185859;23;20205;-79
2023/01/20 07:04:14;;;;;;;9.07;7.23;;;;;;;-1.88;100.00;98824.63;6185447;23;20685;-79
2023/01/20 07:06:41;;;;;;;8.77;7.67;;;;;;;-1.79;100.00;98828.09;6186067;23;20222;-79
2023/01/20 07:09:09;;;;;;;10.87;7.93;;;;;;;-1.72;100.00;98818.56;6160386;23;20186;-79
2023/01/20 07:11:36;;;;;;;10.00;7.53;;;;;;;-1.61;100.00;98818.28;6186341;23;20213;-78
2023/01/20 07:14:04;;;;;;;9.80;7.63;;;;;;;-1.66;100.00;98819.75;6184914;23;20545;-78
2023/01/20 07:16:31;;;;;;;9.57;7.37;;;;;;;-1.63;100.00;98820.22;6186154;23;20202;-79
2023/01/20 07:18:57;;;;;;;9.37;7.70;;;;;;;-1.61;100.00;98830.59;6185841;23;20210;-78
2023/01/20 07:21:26;;;;;;;11.37;7.23;;;;;;;-1.53;100.00;98834.03;6186579;23;20210;-79
2023/01/20 07:23:53;;;;;;;9.50;7.93;;;;;;;-1.46;100.00;98832.44;6171893;23;20701;-79
2023/01/20 07:26:25;;;;;;;10.83;7.17;;;;;;;-1.41;100.00;98826.69;6186837;23;20202;-79
2023/01/20 07:28:52;;;;;;;9.17;7.50;;;;;;;-1.33;100.00;98835.38;6187438;23;20216;-79
2023/01/20 07:31:25;;;;;;;7.80;6.50;;;;;;;-1.28;100.00;98831.44;6160159;23;20260;-79
2023/01/20 07:33:55;;;;;;;9.07;7.13;;;;;;;-1.30;100.00;98844.72;6185189;23;20214;-80
2023/01/20 07:36:22;;;;;;;9.90;7.33;;;;;;;-1.21;100.00;98854.25;6185173;23;20665;-79
2023/01/20 07:38:49;;;;;;;14.37;7.53;;;;;;;-1.02;100.00;98839.97;6186807;23;20281;-79
2023/01/20 07:41:19;;;;;;;9.50;8.60;;;;;;;-0.98;100.00;98842.09;6186065;23;20245;-78
2023/01/20 07:43:48;;;;;;;10.87;7.53;;;;;;;-0.91;100.00;98855.44;6158538;23;20655;-79
2023/01/20 07:46:18;;;;;;;9.70;7.63;;;;;;;-0.91;100.00;98856.25;6184792;23;20214;-80
2023/01/20 07:48:48;;;;;;;9.70;7.47;;;;;;;-0.85;100.00;98861.84;6160428;23;20206;-79
2023/01/20 07:51:15;;;;;;;10.53;7.80;;;;;;;-0.73;100.00;98868.38;6185283;23;20205;-79
2023/01/20 07:53:47;;;;;;;9.20;7.33;;;;;;;-0.57;100.00;98871.00;6160225;23;20274;-80
2023/01/20 07:56:19;;;;;;;10.93;7.90;;;;;;;-0.54;100.00;98860.13;6185668;23;20217;-79
2023/01/20 07:58:49;;;;;;;11.13;7.43;;;;;;;-0.51;100.00;98863.25;6169766;23;20202;-80
2023/01/20 08:01:19;;;;;;;10.13;7.57;;;;;;;-0.45;100.00;98874.91;6184691;23;20550;-79
2023/01/20 08:03:46;;;;;;;8.37;6.80;;;;;;;-0.30;100.00;98877.69;6186037;23;20671;-79
2023/01/20 08:06:14;;;;;;;10.40;7.30;;;;;;;-0.25;100.00;98872.75;6187905;23;20604;-80
2023/01/20 08:08:41;;;;;;;9.87;7.30;;;;;;;-0.22;100.00;98877.66;6162340;23;20252;-80
2023/01/20 08:11:09;;;;;;;8.83;6.97;;;;;;;-0.16;100.00;98884.88;6188348;23;20286;-80
2023/01/20 08:13:36;;;;;;;9.50;7.70;;;;;;;-0.16;100.00;98884.88;6163585;23;20675;-80
2023/01/20 08:16:05;;;;;;;9.27;6.80;;;;;;;0.01;100.00;98881.19;6189485;23;20213;-79
2023/01/20 08:18:34;;;;;;;8.53;7.20;;;;;;;0.00;100.00;98890.13;6190367;23;20186;-81
2023/01/20 08:21:05;;;;;;;9.57;7.10;;;;;;;0.10;100.00;98893.34;6175073;23;20277;-80
2023/01/20 08:23:35;;;;;;;10.13;6.90;;;;;;;0.10;100.00;98887.25;6162196;23;20268;-79
2023/01/20 08:26:05;;;;;;;8.53;6.83;;;;;;;0.22;100.00;98897.25;6187376;23;20233;-79
2023/01/20 08:28:33;;;;;;;9.07;6.27;;;;;;;0.32;100.00;98891.78;6184930;23;20224;-79
2023/01/20 08:31:08;;;;;;;7.13;6.43;;;;;;;0.30;100.00;98883.22;6161194;23;20214;-80
2023/01/20 08:33:36;;;;;;;7.60;6.60;;;;;;;0.31;100.00;98888.31;6159795;23;20210;-79
2023/01/20 08:36:05;;;;;;;9.00;6.80;;;;;;;0.46;100.00;98900.78;6157630;23;20289;-80
2023/01/20 08:38:35;;;;;;;7.60;6.80;;;;;;;0.39;100.00;98903.25;6186312;23;20596;-80
2023/01/20 08:41:08;;;;;;;8.03;6.90;;;;;;;0.46;100.00;98903.41;6186034;23;20210;-79
2023/01/20 08:43:34;;;;;;;8.07;6.63;;;;;;;0.53;100.00;98909.63;6185731;23;20210;-79
2023/01/20 08:46:05;;;;;;;7.27;6.00;;;;;;;0.66;100.00;98907.22;6185491;23;20213;-78
2023/01/20 08:48:32;;;;;;;10.07;7.03;;;;;;;0.71;100.00;98916.25;6186235;23;20539;-80
2023/01/20 08:51:02;;;;;;;12.50;6.97;;;;;;;0.66;100.00;98913.31;6185913;23;20214;-80
2023/01/20 08:53:29;;;;;;;8.33;6.70;;;;;;;0.81;100.00;98921.31;6160771;23;20210;-79
2023/01/20 08:55:59;;;;;;;7.50;6.67;;;;;;;0.92;100.00;98917.47;6135676;23;20213;-79
2023/01/20 08:58:28;;;;;;;9.07;6.50;;;;;;;0.97;100.00;98920.41;6160116;23;20634;-80
2023/01/20 09:00:55;;;;;;;8.07;6.13;;;;;;;0.90;100.00;98909.72;6185999;23;20655;-79
2023/01/20 09:03:23;;;;;;;6.77;5.83;;;;;;;0.99;100.00;98915.75;6160411;23;20568;-80
2023/01/20 09:05:50;;;;;;;9.07;6.30;;;;;;;0.94;100.00;98916.28;6159574;23;20280;-80
2023/01/20 09:08:18;;;;;;;8.00;6.43;;;;;;;1.06;100.00;98927.25;6185253;23;21370;-80
2023/01/20 09:10:45;;;;;;;8.70;6.23;;;;;;;1.10;100.00;98928.53;6159559;23;20216;-79
2023/01/20 09:13:12;;;;;;;7.77;5.83;;;;;;;1.16;100.00;98931.31;6160241;23;20210;-80
2023/01/20 09:15:40;;;;;;;9.10;6.33;;;;;;;1.10;100.00;98932.00;6186630;23;20210;-80
2023/01/20 09:18:07;;;;;;;8.13;5.83;;;;;;;1.26;100.00;98925.78;6186049;23;20689;-80
2023/01/20 09:20:34;;;;;;;6.93;5.63;;;;;;;1.11;100.00;98917.81;6185534;23;20293;-80
2023/01/20 09:23:01;;;;;;;8.30;6.00;;;;;;;1.10;100.00;98923.25;6185194;23;20206;-79
2023/01/20 09:25:28;;;;;;;6.60;5.13;;;;;;;1.16;100.00;98919.94;6190889;23;20210;-81
2023/01/20 09:27:59;;;;;;;7.57;5.67;;;;;;;1.24;100.00;98927.78;6167422;23;20206;-80
2023/01/20 09:30:28;;;;;;;7.73;6.47;;;;;;;1.29;100.00;98922.78;6116389;23;20209;-79
2023/01/20 09:32:58;;;;;;;8.07;6.23;;;;;;;1.37;100.00;98917.44;6189160;23;20205;-79
2023/01/20 09:35:25;;;;;;;8.63;6.37;;;;;;;1.25;100.00;98932.06;6184054;23;20206;-79
2023/01/20 09:43:54;;;;;;;9.33;6.37;;;;;;;1.52;100.00;98923.56;6185038;23;20237;-79
2023/01/20 09:47:20;;;;;;;9.00;6.67;;;;;;;1.44;100.00;98934.22;6186056;23;20269;-79
2023/01/20 09:53:15;;;;;;;7.40;5.63;;;;;;;1.26;100.00;98923.94;6183382;23;20301;-78
2023/01/20 09:56:07;;;;;;;8.07;6.17;;;;;;;1.56;100.00;98922.22;6185207;23;20213;-78
2023/01/20 09:58:44;;;;;;;8.23;6.07;;;;;;;1.64;100.00;98914.19;6158385;23;20326;-78
2023/01/20 10:01:32;;;;;;;6.30;5.47;;;;;;;1.68;100.00;98907.56;6184762;23;20209;-79
2023/01/20 10:04:04;;;;;;;7.57;5.60;;;;;;;1.66;100.00;98900.84;6158594;23;20609;-78
2023/01/20 10:06:51;;;;;;;6.87;5.40;;;;;;;1.65;100.00;98900.00;6128873;23;20209;-78
2023/01/20 10:09:37;;;;;;;7.37;5.73;;;;;;;1.63;100.00;98909.13;6153689;23;20706;-78
2023/01/20 10:12:14;;;;;;;6.87;6.10;;;;;;;1.92;100.00;98908.31;6164333;23;20210;-77
2023/01/20 10:14:44;;;;;;;8.13;6.03;;;;;;;2.07;100.00;98909.13;6154753;23;20210;-79
2023/01/20 10:17:12;;;;;;;7.83;5.87;;;;;;;2.36;100.00;98903.81;6153280;23;20680;-78
2023/01/20 10:19:58;;;;;;;8.53;6.03;;;;;;;2.42;100.00;98902.28;6153505;23;20211;-78
2023/01/20 10:22:51;;;;;;;6.67;5.40;;;;;;;2.34;100.00;98912.94;6154383;23;20249;-78
2023/01/20 10:25:29;;;;;;;6.33;5.40;;;;;;;2.35;100.00;98901.34;6175438;23;20290;-78
2023/01/20 10:28:03;;;;;;;8.67;5.73;;;;;;;2.43;100.00;98902.06;6154582;23;20206;-78
2023/01/20 10:30:31;;;;;;;6.67;5.40;;;;;;;2.47;100.00;98910.47;6152864;23;20198;-79
2023/01/20 10:33:01;;;;;;;7.47;5.70;;;;;;;2.65;100.00;98901.13;6152921;23;20257;-78
2023/01/20 10:35:32;;;;;;;7.10;5.73;;;;;;;2.66;100.00;98901.94;6152960;23;20218;-78
2023/01/20 10:37:58;;;;;;;7.20;5.43;;;;;;;2.74;100.00;98898.38;6154394;23;20596;-78
2023/01/20 10:40:40;;;;;;;6.73;4.87;;;;;;;2.63;100.00;98900.47;6154347;23;20545;-78
2023/01/20 10:43:12;;;;;;;6.87;5.37;;;;;;;2.94;100.00;98897.53;6153113;23;20253;-78
2023/01/20 10:46:15;;;;;;;7.10;5.27;;;;;;;2.92;100.00;98904.03;6157476;23;20209;-79
2023/01/20 10:49:02;;;;;;;6.10;4.53;;;;;;;2.76;100.00;98905.09;6156473;23;20293;-80
2023/01/20 10:51:37;;;;;;;5.67;4.87;;;;;;;2.76;100.00;98902.44;6156990;23;20281;-79
2023/01/20 10:54:13;;;;;;;5.90;5.03;;;;;;;2.50;100.00;98905.63;6151672;23;20300;-78
2023/01/20 10:56:52;;;;;;;5.43;4.77;;;;;;;2.90;100.00;98898.94;6154006;23;20262;-78
2023/01/20 10:59:29;;;;;;;6.10;5.37;;;;;;;3.05;100.00;98897.06;6153259;23;20231;-79
2023/01/20 11:02:01;;;;;;;6.07;5.23;;;;;;;3.07;100.00;98894.22;6154672;23;20210;-79
2023/01/20 11:04:37;;;;;;;6.70;5.20;;;;;;;2.95;100.00;98904.47;6153827;23;20210;-80
2023/01/20 11:07:07;;;;;;;6.37;4.97;;;;;;;2.89;100.00;98896.50;6158056;23;20311;-78
2023/01/20 11:09:36;;;;;;;7.70;5.80;;;;;;;2.90;100.00;98880.41;6156772;23;20234;-79
2023/01/20 11:12:08;;;;;;;8.40;5.20;;;;;;;2.86;100.00;98868.56;6156721;23;20655;-79
2023/01/20 11:14:35;;;;;;;5.83;5.13;;;;;;;2.53;100.00;98873.50;6158997;23;20265;-79
2023/01/20 11:17:04;;;;;;;8.30;5.57;;;;;;;2.46;100.00;98875.28;6155865;23;20199;-79
2023/01/20 11:19:47;;;;;;;6.87;5.40;;;;;;;2.40;100.00;98861.97;6156091;23;20522;-78
2023/01/20 11:22:19;;;;;;;6.63;5.03;;;;;;;2.25;100.00;98856.72;6154502;23;20539;-80
2023/01/20 11:24:47;;;;;;;7.23;5.10;;;;;;;2.09;100.00;98851.66;6156579;23;20222;-79
2023/01/20 11:27:16;;;;;;;7.50;5.67;;;;;;;2.07;100.00;98853.63;6154449;23;20207;-80
2023/01/20 11:30:05;;;;;;;6.43;5.33;;;;;;;2.04;100.00;98860.13;6154661;23;20213;-80
2023/01/20 11:32:34;;;;;;;8.30;5.27;;;;;;;1.98;100.00;98858.22;6184825;23;20198;-79
2023/01/20 11:35:23;;;;;;;5.40;4.20;;;;;;;1.91;100.00;98869.69;6184559;23;20206;-80
2023/01/20 11:37:50;;;;;;;5.43;4.70;;;;;;;1.85;100.00;98851.94;6184920;23;20691;-80
2023/01/20 11:40:21;;;;;;;6.50;5.30;;;;;;;2.01;100.00;98851.72;6184073;23;20262;-80
2023/01/20 11:42:49;;;;;;;5.93;4.77;;;;;;;1.95;100.00;98863.03;6186321;23;20212;-79
2023/01/20 11:45:33;;;;;;;6.17;5.33;;;;;;;1.95;100.00;98863.88;6209650;23;20239;-80
2023/01/20 11:48:05;;;;;;;6.30;5.17;;;;;;;2.01;100.00;98851.72;6210417;23;20272;-81
2023/01/20 11:50:37;;;;;;;6.23;5.27;;;;;;;2.24;100.00;98849.78;6157058;23;20273;-79
2023/01/20 11:53:23;;;;;;;8.23;5.30;;;;;;;2.18;100.00;98821.47;6156041;23;20211;-80
2023/01/20 11:55:51;;;;;;;6.70;5.17;;;;;;;2.27;100.00;98844.16;6157235;23;20687;-80
2023/01/20 11:58:20;;;;;;;5.37;4.23;;;;;;;2.19;100.00;98828.41;6156658;23;20199;-79
2023/01/20 12:00:49;;;;;;;5.80;4.80;;;;;;;2.19;100.00;98831.03;6156915;23;20214;-80
2023/01/20 12:03:27;;;;;;;6.80;4.97;;;;;;;2.33;100.00;98832.00;6157352;23;20211;-80
2023/01/20 12:05:57;;;;;;;5.33;4.53;;;;;;;2.24;100.00;98836.56;6155858;23;20230;-80
2023/01/20 12:08:34;;;;;;;6.00;4.60;;;;;;;2.08;100.00;98839.44;6155512;23;20671;-80
2023/01/20 12:11:03;;;;;;;6.47;5.30;;;;;;;2.21;100.00;98840.41;6153225;23;20241;-79